createdAt,value
2018-08-24T00:00:54.670Z,52.00
2018-08-24T00:02:11.617Z,52.00
2018-08-24T00:03:28.234Z,52.00
2018-08-24T00:04:45.231Z,52.80
2018-08-24T00:06:02.717Z,52.00
2018-08-24T00:07:19.837Z,52.20
2018-08-24T00:08:36.812Z,52.10
2018-08-24T00:09:53.723Z,52.20
2018-08-24T00:11:10.527Z,52.30
2018-08-24T00:12:27.690Z,52.40
2018-08-24T00:13:44.280Z,52.40
2018-08-24T00:15:01.209Z,52.50
2018-08-24T00:16:25.128Z,52.40
2018-08-24T00:17:47.084Z,52.40
2018-08-24T00:19:04.849Z,52.50
2018-08-24T00:20:22.051Z,53.20
2018-08-24T00:21:39.672Z,52.60
2018-08-24T00:22:57.167Z,52.60
2018-08-24T00:24:15.117Z,52.60
2018-08-24T00:25:32.246Z,52.60
2018-08-24T00:26:49.260Z,52.70
2018-08-24T00:28:06.256Z,52.70
2018-08-24T00:29:23.080Z,52.60
2018-08-24T00:30:39.536Z,52.70
2018-08-24T00:31:56.502Z,52.60
2018-08-24T00:33:13.381Z,52.70
2018-08-24T00:34:30.053Z,52.60
2018-08-24T00:35:46.922Z,52.50
2018-08-24T00:37:03.601Z,52.50
2018-08-24T00:38:20.494Z,52.70
2018-08-24T00:39:37.313Z,52.70
2018-08-24T00:40:57.627Z,53.10
2018-08-24T00:42:15.137Z,52.80
2018-08-24T00:43:31.882Z,52.70
2018-08-24T00:44:49.592Z,52.90
2018-08-24T00:46:06.776Z,52.80
2018-08-24T00:47:23.723Z,52.80
2018-08-24T00:48:41.222Z,52.80
2018-08-24T00:49:58.133Z,52.90
2018-08-24T00:51:15.098Z,53.60
2018-08-24T00:52:32.781Z,53.00
2018-08-24T00:53:49.552Z,52.90
2018-08-24T00:55:07.052Z,52.90
2018-08-24T00:56:23.779Z,52.80
2018-08-24T00:57:40.341Z,53.10
2018-08-24T00:58:57.261Z,53.10
2018-08-24T01:00:14.124Z,53.10
2018-08-24T01:01:30.640Z,53.00
2018-08-24T01:02:47.737Z,53.00
2018-08-24T01:04:04.445Z,53.00
2018-08-24T01:05:21.872Z,53.00
2018-08-24T01:06:38.696Z,53.00
2018-08-24T01:08:00.469Z,53.10
2018-08-24T01:09:17.263Z,53.20
2018-08-24T01:10:33.824Z,53.10
2018-08-24T01:11:55.986Z,53.10
2018-08-24T01:13:13.812Z,53.20
2018-08-24T01:14:31.227Z,53.00
2018-08-24T01:15:54.557Z,53.20
2018-08-24T01:17:16.972Z,53.20
2018-08-24T01:18:39.916Z,53.20
2018-08-24T01:19:57.170Z,53.60
2018-08-24T01:21:14.320Z,53.10
2018-08-24T01:22:31.088Z,53.10
2018-08-24T01:23:48.112Z,53.10
2018-08-24T01:25:05.004Z,53.40
2018-08-24T01:26:21.877Z,53.20
2018-08-24T01:27:39.090Z,53.80
2018-08-24T01:28:55.989Z,54.00
2018-08-24T01:30:13.241Z,53.20
2018-08-24T01:31:30.432Z,53.20
2018-08-24T01:32:47.494Z,53.30
2018-08-24T01:34:04.040Z,53.20
2018-08-24T01:35:21.090Z,52.80
2018-08-24T01:36:38.163Z,53.20
2018-08-24T01:37:55.162Z,53.20
2018-08-24T01:39:11.780Z,53.00
2018-08-24T01:40:28.696Z,52.90
2018-08-24T01:41:45.419Z,52.90
2018-08-24T01:43:02.253Z,53.10
2018-08-24T01:44:19.141Z,52.90
2018-08-24T01:45:36.033Z,53.20
2018-08-24T01:46:52.677Z,53.10
2018-08-24T01:48:10.167Z,53.20
2018-08-24T01:49:27.389Z,53.00
2018-08-24T01:50:44.881Z,53.70
2018-08-24T01:52:02.006Z,53.10
2018-08-24T01:53:19.089Z,53.00
2018-08-24T01:54:36.629Z,52.90
2018-08-24T01:55:53.347Z,53.00
2018-08-24T01:57:09.992Z,53.00
2018-08-24T01:58:26.733Z,53.00
2018-08-24T01:59:44.072Z,53.00
2018-08-24T02:01:00.965Z,53.80
2018-08-24T02:02:18.055Z,53.00
2018-08-24T02:03:34.626Z,53.20
2018-08-24T02:04:51.223Z,53.20
2018-08-24T02:06:08.736Z,53.10
2018-08-24T02:07:25.846Z,53.20
2018-08-24T02:08:42.485Z,53.10
2018-08-24T02:09:59.378Z,53.10
2018-08-24T02:11:21.672Z,53.10
2018-08-24T02:12:44.493Z,53.00
2018-08-24T02:14:06.944Z,53.00
2018-08-24T02:15:24.287Z,53.50
2018-08-24T02:16:42.196Z,52.80
2018-08-24T02:18:04.620Z,52.80
2018-08-24T02:19:27.553Z,52.50
2018-08-24T02:20:50.005Z,52.40
2018-08-24T02:22:12.965Z,52.20
2018-08-24T02:23:30.422Z,52.20
2018-08-24T02:24:47.009Z,52.20
2018-08-24T02:26:03.916Z,52.10
2018-08-24T02:27:20.892Z,52.00
2018-08-24T02:28:37.517Z,52.00
2018-08-24T02:29:57.726Z,52.00
2018-08-24T02:31:14.808Z,51.90
2018-08-24T02:32:32.413Z,51.90
2018-08-24T02:33:49.184Z,51.80
2018-08-24T02:35:08.352Z,51.80
2018-08-24T02:36:25.412Z,51.80
2018-08-24T02:37:42.052Z,51.70
2018-08-24T02:38:59.018Z,51.70
2018-08-24T02:40:15.789Z,51.80
2018-08-24T02:41:32.819Z,51.70
2018-08-24T02:42:49.810Z,51.70
2018-08-24T02:44:06.737Z,51.80
2018-08-24T02:45:24.562Z,51.80
2018-08-24T02:46:42.220Z,51.80
2018-08-24T02:47:59.012Z,51.80
2018-08-24T02:49:15.605Z,51.80
2018-08-24T02:50:32.709Z,52.50
2018-08-24T02:51:49.772Z,51.30
2018-08-24T02:53:06.487Z,51.80
2018-08-24T02:54:23.640Z,51.80
2018-08-24T02:55:40.295Z,52.00
2018-08-24T02:56:57.520Z,51.90
2018-08-24T02:58:15.033Z,51.80
2018-08-24T02:59:31.855Z,51.80
2018-08-24T03:00:48.818Z,51.80
2018-08-24T03:02:05.526Z,51.90
2018-08-24T03:03:22.747Z,51.80
2018-08-24T03:04:39.250Z,51.80
2018-08-24T03:05:56.459Z,51.80
2018-08-24T03:07:13.006Z,51.90
2018-08-24T03:08:29.838Z,51.70
2018-08-24T03:09:46.922Z,51.80
2018-08-24T03:11:03.780Z,52.00
2018-08-24T03:12:20.652Z,51.70
2018-08-24T03:13:38.469Z,51.70
2018-08-24T03:14:55.805Z,51.70
2018-08-24T03:16:12.532Z,51.60
2018-08-24T03:17:34.861Z,51.60
2018-08-24T03:18:51.949Z,51.60
2018-08-24T03:20:08.658Z,51.60
2018-08-24T03:21:25.293Z,51.60
2018-08-24T03:22:42.130Z,51.60
2018-08-24T03:23:59.368Z,51.80
2018-08-24T03:25:16.831Z,51.60
2018-08-24T03:26:33.951Z,52.30
2018-08-24T03:27:51.704Z,51.50
2018-08-24T03:29:09.258Z,51.60
2018-08-24T03:30:26.025Z,51.50
2018-08-24T03:31:42.790Z,51.60
2018-08-24T03:32:59.539Z,51.60
2018-08-24T03:34:16.332Z,51.60
2018-08-24T03:35:33.188Z,51.60
2018-08-24T03:36:49.705Z,51.50
2018-08-24T03:38:06.836Z,51.50
2018-08-24T03:39:23.729Z,51.50
2018-08-24T03:40:40.693Z,51.50
2018-08-24T03:41:57.861Z,51.60
2018-08-24T03:43:14.675Z,51.60
2018-08-24T03:44:31.479Z,51.50
2018-08-24T03:45:48.359Z,52.20
2018-08-24T03:47:05.164Z,52.20
2018-08-24T03:48:21.703Z,52.00
2018-08-24T03:49:38.797Z,51.50
2018-08-24T03:50:55.284Z,51.50
2018-08-24T03:52:12.412Z,51.60
2018-08-24T03:53:29.522Z,51.60
2018-08-24T03:54:47.193Z,51.60
2018-08-24T03:56:04.116Z,51.60
2018-08-24T03:57:21.042Z,51.60
2018-08-24T03:58:38.233Z,51.50
2018-08-24T03:59:55.171Z,51.60
2018-08-24T04:01:11.790Z,52.30
2018-08-24T04:02:29.301Z,51.50
2018-08-24T04:03:46.934Z,51.60
2018-08-24T04:05:04.656Z,51.60
2018-08-24T04:06:21.350Z,51.60
2018-08-24T04:07:38.225Z,52.20
2018-08-24T04:08:54.914Z,51.60
2018-08-24T04:10:11.721Z,51.60
2018-08-24T04:11:28.397Z,51.60
2018-08-24T04:12:45.141Z,51.60
2018-08-24T04:14:01.833Z,51.60
2018-08-24T04:15:18.713Z,51.00
2018-08-24T04:16:41.837Z,51.60
2018-08-24T04:17:59.051Z,51.60
2018-08-24T04:19:32.346Z,51.60
2018-08-24T04:20:49.861Z,51.60
2018-08-24T04:22:06.849Z,51.70
2018-08-24T04:23:23.709Z,51.30
2018-08-24T04:24:40.512Z,51.60
2018-08-24T04:25:57.545Z,51.60
2018-08-24T04:27:14.436Z,51.60
2018-08-24T04:28:30.892Z,51.60
2018-08-24T04:29:47.991Z,52.30
2018-08-24T04:31:04.586Z,52.30
2018-08-24T04:32:21.390Z,51.70
2018-08-24T04:33:38.457Z,51.70
2018-08-24T04:34:55.636Z,52.30
2018-08-24T04:36:12.191Z,51.70
2018-08-24T04:37:28.788Z,52.30
2018-08-24T04:38:45.796Z,51.70
2018-08-24T04:40:02.439Z,51.70
2018-08-24T04:41:19.233Z,51.60
2018-08-24T04:42:35.975Z,51.60
2018-08-24T04:43:53.092Z,51.70
2018-08-24T04:45:10.220Z,51.70
2018-08-24T04:46:27.521Z,51.80
2018-08-24T04:47:44.412Z,51.70
2018-08-24T04:49:01.378Z,52.40
2018-08-24T04:50:18.209Z,51.70
2018-08-24T04:51:35.014Z,51.70
2018-08-24T04:52:51.960Z,52.30
2018-08-24T04:54:08.660Z,51.70
2018-08-24T04:55:25.125Z,51.80
2018-08-24T04:56:42.212Z,52.50
2018-08-24T04:57:59.330Z,52.50
2018-08-24T04:59:16.449Z,51.80
2018-08-24T05:00:33.370Z,51.80
2018-08-24T05:01:49.965Z,51.80
2018-08-24T05:03:07.159Z,51.80
2018-08-24T05:04:24.443Z,51.80
2018-08-24T05:05:41.343Z,51.80
2018-08-24T05:06:58.088Z,51.80
2018-08-24T05:08:15.290Z,51.80
2018-08-24T05:09:32.878Z,51.70
2018-08-24T05:10:49.589Z,52.50
2018-08-24T05:12:06.797Z,51.80
2018-08-24T05:13:24.385Z,51.90
2018-08-24T05:14:41.025Z,52.30
2018-08-24T05:15:58.139Z,51.80
2018-08-24T05:17:15.151Z,51.80
2018-08-24T05:18:33.757Z,51.80
2018-08-24T05:19:50.391Z,51.80
2018-08-24T05:21:07.720Z,51.80
2018-08-24T05:22:25.018Z,51.80
2018-08-24T05:23:42.116Z,51.80
2018-08-24T05:24:58.945Z,51.80
2018-08-24T05:26:15.740Z,52.10
2018-08-24T05:27:32.509Z,52.50
2018-08-24T05:28:49.950Z,51.80
2018-08-24T05:30:07.077Z,51.80
2018-08-24T05:31:24.800Z,51.80
2018-08-24T05:32:41.338Z,51.80
2018-08-24T05:33:58.548Z,51.80
2018-08-24T05:35:15.892Z,52.50
2018-08-24T05:36:32.955Z,51.80
2018-08-24T05:37:50.445Z,51.90
2018-08-24T05:39:08.125Z,52.50
2018-08-24T05:40:25.428Z,51.80
2018-08-24T05:41:42.776Z,51.90
2018-08-24T05:42:59.604Z,52.20
2018-08-24T05:44:16.812Z,52.50
2018-08-24T05:45:34.212Z,52.50
2018-08-24T05:46:51.251Z,51.80
2018-08-24T05:48:08.258Z,51.90
2018-08-24T05:49:24.879Z,51.90
2018-08-24T05:50:41.661Z,51.90
2018-08-24T05:51:58.566Z,52.00
2018-08-24T05:53:15.389Z,51.90
2018-08-24T05:54:32.098Z,52.60
2018-08-24T05:55:48.940Z,51.60
2018-08-24T05:57:06.638Z,51.90
2018-08-24T05:58:24.164Z,51.90
2018-08-24T05:59:40.858Z,51.90
2018-08-24T06:00:57.757Z,51.90
2018-08-24T06:02:14.731Z,52.00
2018-08-24T06:03:31.198Z,51.90
2018-08-24T06:04:48.825Z,52.00
2018-08-24T06:06:05.965Z,51.90
2018-08-24T06:07:22.961Z,51.90
2018-08-24T06:08:40.031Z,51.80
2018-08-24T06:09:56.765Z,51.80
2018-08-24T06:11:13.643Z,51.80
2018-08-24T06:12:30.544Z,51.80
2018-08-24T06:13:47.438Z,51.80
2018-08-24T06:15:04.397Z,51.80
2018-08-24T06:16:21.525Z,51.90
2018-08-24T06:17:43.788Z,51.80
2018-08-24T06:19:01.404Z,51.80
2018-08-24T06:20:18.840Z,51.80
2018-08-24T06:21:35.999Z,51.80
2018-08-24T06:22:53.543Z,51.80
2018-08-24T06:24:11.021Z,52.40
2018-08-24T06:25:28.733Z,51.80
2018-08-24T06:26:45.644Z,51.80
2018-08-24T06:28:02.485Z,52.50
2018-08-24T06:29:20.213Z,52.00
2018-08-24T06:30:37.781Z,51.80
2018-08-24T06:31:54.404Z,51.80
2018-08-24T06:33:11.339Z,51.80
2018-08-24T06:34:28.839Z,51.80
2018-08-24T06:35:45.734Z,51.80
2018-08-24T06:37:03.021Z,51.80
2018-08-24T06:38:20.513Z,51.80
2018-08-24T06:39:37.480Z,51.70
2018-08-24T06:40:54.093Z,51.60
2018-08-24T06:42:11.085Z,51.70
2018-08-24T06:43:28.208Z,51.70
2018-08-24T06:44:44.884Z,51.70
2018-08-24T06:46:01.938Z,51.60
2018-08-24T06:47:18.880Z,51.80
2018-08-24T06:48:36.194Z,51.80
2018-08-24T06:49:53.006Z,51.60
2018-08-24T06:51:10.477Z,51.60
2018-08-24T06:52:27.950Z,52.20
2018-08-24T06:53:45.203Z,51.50
2018-08-24T06:55:02.263Z,51.70
2018-08-24T06:56:19.160Z,51.60
2018-08-24T06:57:35.739Z,51.70
2018-08-24T06:58:52.607Z,51.60
2018-08-24T07:00:09.977Z,52.30
2018-08-24T07:01:26.813Z,51.60
2018-08-24T07:02:43.397Z,52.40
2018-08-24T07:04:00.124Z,51.70
2018-08-24T07:05:17.089Z,51.60
2018-08-24T07:06:33.896Z,51.60
2018-08-24T07:07:51.809Z,51.60
2018-08-24T07:09:09.918Z,51.70
2018-08-24T07:10:27.139Z,51.90
2018-08-24T07:11:44.117Z,51.60
2018-08-24T07:13:01.205Z,51.60
2018-08-24T07:14:17.920Z,51.60
2018-08-24T07:15:34.617Z,51.60
2018-08-24T07:16:55.541Z,51.60
2018-08-24T07:18:13.060Z,51.60
2018-08-24T07:19:30.665Z,51.60
2018-08-24T07:20:47.789Z,51.60
2018-08-24T07:22:04.375Z,51.70
2018-08-24T07:23:21.109Z,51.60
2018-08-24T07:24:37.749Z,51.50
2018-08-24T07:25:54.581Z,51.60
2018-08-24T07:27:11.725Z,51.60
2018-08-24T07:28:28.789Z,51.60
2018-08-24T07:29:45.469Z,52.00
2018-08-24T07:31:02.429Z,51.60
2018-08-24T07:32:19.505Z,51.50
2018-08-24T07:33:36.033Z,51.30
2018-08-24T07:34:53.195Z,52.20
2018-08-24T07:36:09.992Z,51.40
2018-08-24T07:37:26.816Z,51.60
2018-08-24T07:38:43.363Z,51.50
2018-08-24T07:40:00.287Z,50.40
2018-08-24T07:41:17.648Z,51.50
2018-08-24T07:42:35.042Z,51.40
2018-08-24T07:43:51.733Z,51.50
2018-08-24T07:45:08.585Z,51.50
2018-08-24T07:46:26.111Z,51.50
2018-08-24T07:47:42.867Z,51.50
2018-08-24T07:48:59.577Z,52.20
2018-08-24T07:50:16.407Z,52.10
2018-08-24T07:51:33.273Z,51.60
2018-08-24T07:52:50.217Z,51.60
2018-08-24T07:54:06.980Z,52.20
2018-08-24T07:55:24.217Z,51.50
2018-08-24T07:56:40.868Z,51.60
2018-08-24T07:57:57.987Z,51.40
2018-08-24T07:59:14.649Z,51.60
2018-08-24T08:00:31.428Z,51.50
2018-08-24T08:01:48.477Z,52.10
2018-08-24T08:03:05.049Z,52.10
2018-08-24T08:04:22.070Z,52.10
2018-08-24T08:05:38.813Z,51.50
2018-08-24T08:06:55.637Z,51.50
2018-08-24T08:08:12.466Z,51.40
2018-08-24T08:09:29.104Z,51.40
2018-08-24T08:10:46.019Z,51.40
2018-08-24T08:12:03.654Z,51.40
2018-08-24T08:13:20.329Z,51.40
2018-08-24T08:14:37.047Z,51.40
2018-08-24T08:15:54.590Z,51.40
2018-08-24T08:17:12.675Z,51.40
2018-08-24T08:18:30.102Z,51.40
2018-08-24T08:19:47.034Z,51.40
2018-08-24T08:21:03.911Z,51.40
2018-08-24T08:22:20.716Z,51.40
2018-08-24T08:23:37.667Z,51.60
2018-08-24T08:24:54.190Z,51.60
2018-08-24T08:26:11.119Z,51.60
2018-08-24T08:27:28.993Z,51.40
2018-08-24T08:28:45.749Z,52.10
2018-08-24T08:30:03.655Z,51.50
2018-08-24T08:31:21.180Z,51.50
2018-08-24T08:32:37.761Z,51.50
2018-08-24T08:33:54.615Z,51.50
2018-08-24T08:35:11.959Z,51.40
2018-08-24T08:36:28.505Z,52.10
2018-08-24T08:37:46.071Z,51.50
2018-08-24T08:39:03.318Z,51.50
2018-08-24T08:40:20.268Z,51.40
2018-08-24T08:41:37.812Z,51.40
2018-08-24T08:42:54.939Z,51.40
2018-08-24T08:44:13.723Z,51.40
2018-08-24T08:45:30.413Z,51.50
2018-08-24T08:46:47.337Z,52.10
2018-08-24T08:48:04.173Z,51.40
2018-08-24T08:49:21.209Z,51.40
2018-08-24T08:50:37.940Z,52.00
2018-08-24T08:51:54.586Z,51.30
2018-08-24T08:53:11.304Z,51.20
2018-08-24T08:54:28.021Z,51.20
2018-08-24T08:55:44.819Z,51.10
2018-08-24T08:57:01.872Z,51.90
2018-08-24T08:58:18.797Z,51.20
2018-08-24T08:59:35.550Z,51.20
2018-08-24T09:00:52.172Z,51.20
2018-08-24T09:02:10.265Z,51.30
2018-08-24T09:03:27.665Z,51.40
2018-08-24T09:04:44.522Z,48.60
2018-08-24T09:06:02.409Z,48.70
2018-08-24T09:07:19.203Z,49.10
2018-08-24T09:08:36.016Z,49.70
2018-08-24T09:09:52.835Z,49.50
2018-08-24T09:11:09.409Z,49.20
2018-08-24T09:12:26.349Z,49.30
2018-08-24T09:13:43.216Z,49.20
2018-08-24T09:15:00.084Z,49.30
2018-08-24T09:16:17.594Z,50.20
2018-08-24T09:17:40.276Z,49.70
2018-08-24T09:19:02.520Z,49.70
2018-08-24T09:20:25.317Z,50.30
2018-08-24T09:21:48.041Z,50.70
2018-08-24T09:23:10.109Z,50.60
2018-08-24T09:24:32.904Z,50.60
2018-08-24T09:25:55.649Z,50.80
2018-08-24T09:27:18.566Z,50.40
2018-08-24T09:28:37.344Z,50.30
2018-08-24T09:29:56.848Z,51.40
2018-08-24T09:31:18.707Z,50.50
2018-08-24T09:32:36.442Z,50.10
2018-08-24T09:33:53.076Z,49.70
2018-08-24T09:35:09.789Z,50.20
2018-08-24T09:36:26.893Z,49.90
2018-08-24T09:37:43.390Z,50.60
2018-08-24T09:39:00.218Z,49.80
2018-08-24T09:40:17.687Z,50.00
2018-08-24T09:41:34.699Z,49.90
2018-08-24T09:42:51.913Z,50.00
2018-08-24T09:44:09.499Z,49.80
2018-08-24T09:45:26.241Z,50.00
2018-08-24T09:46:48.590Z,50.90
2018-08-24T09:48:11.452Z,50.40
2018-08-24T09:49:31.296Z,50.00
2018-08-24T09:50:54.321Z,49.40
2018-08-24T09:52:16.955Z,49.30
2018-08-24T09:53:41.193Z,49.10
2018-08-24T09:54:58.241Z,48.80
2018-08-24T09:56:15.760Z,48.50
2018-08-24T09:57:32.376Z,48.60
2018-08-24T09:58:49.104Z,48.60
2018-08-24T10:00:06.373Z,48.80
2018-08-24T10:01:29.241Z,47.60
2018-08-24T10:02:46.507Z,47.30
2018-08-24T10:04:08.860Z,47.60
2018-08-24T10:05:31.172Z,48.10
2018-08-24T10:06:54.774Z,47.50
2018-08-24T10:08:16.833Z,47.90
2018-08-24T10:09:34.101Z,48.40
2018-08-24T10:10:50.636Z,47.70
2018-08-24T10:12:07.743Z,47.90
2018-08-24T10:13:25.658Z,47.90
2018-08-24T10:14:42.853Z,47.60
2018-08-24T10:15:59.924Z,48.40
2018-08-24T10:17:16.817Z,48.10
2018-08-24T10:18:33.729Z,48.10
2018-08-24T10:19:50.524Z,47.90
2018-08-24T10:21:07.832Z,48.30
2018-08-24T10:22:24.409Z,47.80
2018-08-24T10:23:41.119Z,48.10
2018-08-24T10:24:58.568Z,47.90
2018-08-24T10:26:15.708Z,47.20
2018-08-24T10:27:33.169Z,47.90
2018-08-24T10:28:50.621Z,48.00
2018-08-24T10:30:07.504Z,48.60
2018-08-24T10:31:24.084Z,49.00
2018-08-24T10:32:40.977Z,49.40
2018-08-24T10:33:58.554Z,49.30
2018-08-24T10:35:15.621Z,49.30
2018-08-24T10:36:32.613Z,49.00
2018-08-24T10:37:49.981Z,48.40
2018-08-24T10:39:08.816Z,48.70
2018-08-24T10:40:25.983Z,47.80
2018-08-24T10:41:42.856Z,47.90
2018-08-24T10:42:59.564Z,47.90
2018-08-24T10:44:16.225Z,47.60
2018-08-24T10:45:32.872Z,47.60
2018-08-24T10:46:49.386Z,47.60
2018-08-24T10:48:07.415Z,47.30
2018-08-24T10:49:24.919Z,47.20
2018-08-24T10:50:42.007Z,47.10
2018-08-24T10:51:58.537Z,47.20
2018-08-24T10:53:15.594Z,47.20
2018-08-24T10:54:32.192Z,47.50
2018-08-24T10:55:49.177Z,47.20
2018-08-24T10:57:06.026Z,47.10
2018-08-24T10:58:23.268Z,47.10
2018-08-24T10:59:40.147Z,47.70
2018-08-24T11:00:57.559Z,47.10
2018-08-24T11:02:14.554Z,47.80
2018-08-24T11:03:31.784Z,47.20
2018-08-24T11:04:49.201Z,47.20
2018-08-24T11:06:05.956Z,47.00
2018-08-24T11:07:23.015Z,46.90
2018-08-24T11:08:39.649Z,46.90
2018-08-24T11:09:56.930Z,46.90
2018-08-24T11:11:13.902Z,46.90
2018-08-24T11:12:32.658Z,46.70
2018-08-24T11:13:49.411Z,47.00
2018-08-24T11:15:06.397Z,46.60
2018-08-24T11:16:23.885Z,46.30
2018-08-24T11:17:45.960Z,46.20
2018-08-24T11:19:02.702Z,46.20
2018-08-24T11:20:19.320Z,46.20
2018-08-24T11:21:36.226Z,46.40
2018-08-24T11:22:53.320Z,45.80
2018-08-24T11:24:10.068Z,46.00
2018-08-24T11:25:26.893Z,45.90
2018-08-24T11:26:44.088Z,45.60
2018-08-24T11:28:01.617Z,45.60
2018-08-24T11:29:18.244Z,45.60
2018-08-24T11:30:35.018Z,45.50
2018-08-24T11:31:51.675Z,45.40
2018-08-24T11:33:08.660Z,45.40
2018-08-24T11:34:25.667Z,45.10
2018-08-24T11:35:42.770Z,45.20
2018-08-24T11:37:00.021Z,44.90
2018-08-24T11:38:17.678Z,45.00
2018-08-24T11:39:34.562Z,44.90
2018-08-24T11:40:51.649Z,44.90
2018-08-24T11:42:09.156Z,45.00
2018-08-24T11:43:26.133Z,44.10
2018-08-24T11:44:43.941Z,44.80
2018-08-24T11:46:01.288Z,44.60
2018-08-24T11:47:19.054Z,45.30
2018-08-24T11:48:35.773Z,44.70
2018-08-24T11:49:52.768Z,44.70
2018-08-24T11:51:11.401Z,44.50
2018-08-24T11:52:28.477Z,44.30
2018-08-24T11:53:45.734Z,44.50
2018-08-24T11:55:03.352Z,44.50
2018-08-24T11:56:21.034Z,44.20
2018-08-24T11:57:37.868Z,44.30
2018-08-24T11:58:54.963Z,44.30
2018-08-24T12:00:12.494Z,44.30
2018-08-24T12:01:29.825Z,44.10
2018-08-24T12:02:48.847Z,44.10
2018-08-24T12:04:05.864Z,44.00
2018-08-24T12:05:22.664Z,44.10
2018-08-24T12:06:39.868Z,43.90
2018-08-24T12:08:00.486Z,43.80
2018-08-24T12:09:17.619Z,43.80
2018-08-24T12:10:34.865Z,43.70
2018-08-24T12:11:51.837Z,43.80
2018-08-24T12:13:09.508Z,43.70
2018-08-24T12:14:26.624Z,43.90
2018-08-24T12:15:43.577Z,43.80
2018-08-24T12:17:01.112Z,43.60
2018-08-24T12:18:18.263Z,43.30
2018-08-24T12:19:35.044Z,44.00
2018-08-24T12:20:52.099Z,43.30
2018-08-24T12:22:08.805Z,43.60
2018-08-24T12:23:25.866Z,43.60
2018-08-24T12:24:42.859Z,43.40
2018-08-24T12:25:59.759Z,43.30
2018-08-24T12:27:16.725Z,43.30
2018-08-24T12:28:33.656Z,43.40
2018-08-24T12:29:52.155Z,43.10
2018-08-24T12:31:09.053Z,43.10
2018-08-24T12:32:25.877Z,43.00
2018-08-24T12:33:42.606Z,43.70
2018-08-24T12:34:59.407Z,42.70
2018-08-24T12:36:16.929Z,42.70
2018-08-24T12:37:39.513Z,42.80
2018-08-24T12:38:56.877Z,43.70
2018-08-24T12:40:14.402Z,43.10
2018-08-24T12:41:31.432Z,42.70
2018-08-24T12:42:49.140Z,42.60
2018-08-24T12:44:06.601Z,42.90
2018-08-24T12:45:23.489Z,42.90
2018-08-24T12:46:40.240Z,42.30
2018-08-24T12:47:57.149Z,42.60
2018-08-24T12:49:13.851Z,42.80
2018-08-24T12:50:30.316Z,42.80
2018-08-24T12:51:47.164Z,42.60
2018-08-24T12:53:03.939Z,42.80
2018-08-24T12:54:21.136Z,42.70
2018-08-24T12:55:38.805Z,42.50
2018-08-24T12:56:55.388Z,42.70
2018-08-24T12:58:12.312Z,42.70
2018-08-24T12:59:29.312Z,42.70
2018-08-24T13:00:46.807Z,42.70
2018-08-24T13:02:03.626Z,42.90
2018-08-24T13:03:21.029Z,42.70
2018-08-24T13:04:38.199Z,43.60
2018-08-24T13:05:54.870Z,42.70
2018-08-24T13:07:12.415Z,42.80
2018-08-24T13:08:29.297Z,42.90
2018-08-24T13:09:46.211Z,42.70
2018-08-24T13:11:03.018Z,42.70
2018-08-24T13:12:19.862Z,42.70
2018-08-24T13:13:36.939Z,42.70
2018-08-24T13:14:54.432Z,42.60
2018-08-24T13:16:11.142Z,43.10
2018-08-24T13:17:28.084Z,42.60
2018-08-24T13:18:44.789Z,42.50
2018-08-24T13:20:01.691Z,42.60
2018-08-24T13:21:18.633Z,42.70
2018-08-24T13:22:35.741Z,42.70
2018-08-24T13:23:52.832Z,42.60
2018-08-24T13:25:09.825Z,43.30
2018-08-24T13:26:26.532Z,42.60
2018-08-24T13:27:44.020Z,42.50
2018-08-24T13:29:02.115Z,42.60
2018-08-24T13:30:19.360Z,42.20
2018-08-24T13:31:37.073Z,42.30
2018-08-24T13:32:53.771Z,42.80
2018-08-24T13:34:10.450Z,42.20
2018-08-24T13:35:27.177Z,42.10
2018-08-24T13:36:44.179Z,42.20
2018-08-24T13:38:01.383Z,42.80
2018-08-24T13:39:17.992Z,42.10
2018-08-24T13:40:34.913Z,42.10
2018-08-24T13:41:51.609Z,42.20
2018-08-24T13:43:09.409Z,42.20
2018-08-24T13:44:26.202Z,42.90
2018-08-24T13:45:43.180Z,42.20
2018-08-24T13:46:59.868Z,42.10
2018-08-24T13:48:16.771Z,42.10
2018-08-24T13:49:33.657Z,42.10
2018-08-24T13:50:50.314Z,42.10
2018-08-24T13:52:07.373Z,42.10
2018-08-24T13:53:25.019Z,42.50
2018-08-24T13:54:42.023Z,42.10
2018-08-24T13:56:00.351Z,42.10
2018-08-24T13:57:17.401Z,42.10
2018-08-24T13:58:34.285Z,42.20
2018-08-24T13:59:51.237Z,42.10
2018-08-24T14:01:08.358Z,42.20
2018-08-24T14:02:25.625Z,42.10
2018-08-24T14:03:42.622Z,42.10
2018-08-24T14:05:01.031Z,42.10
2018-08-24T14:06:18.243Z,42.80
2018-08-24T14:07:35.804Z,42.10
2018-08-24T14:08:52.626Z,42.10
2018-08-24T14:10:14.645Z,42.80
2018-08-24T14:11:32.153Z,42.20
2018-08-24T14:12:48.908Z,42.10
2018-08-24T14:14:05.553Z,42.20
2018-08-24T14:15:22.283Z,42.10
2018-08-24T14:16:39.238Z,42.10
2018-08-24T14:17:56.676Z,42.10
2018-08-24T14:19:13.513Z,41.90
2018-08-24T14:20:30.341Z,42.10
2018-08-24T14:21:47.508Z,41.80
2018-08-24T14:23:04.315Z,41.80
2018-08-24T14:24:22.004Z,42.30
2018-08-24T14:25:39.054Z,41.60
2018-08-24T14:26:56.597Z,41.70
2018-08-24T14:28:13.459Z,41.50
2018-08-24T14:29:30.074Z,41.60
2018-08-24T14:30:47.443Z,41.30
2018-08-24T14:32:03.968Z,41.20
2018-08-24T14:33:21.011Z,41.50
2018-08-24T14:34:37.906Z,41.50
2018-08-24T14:35:54.861Z,41.40
2018-08-24T14:37:11.773Z,41.30
2018-08-24T14:38:28.369Z,41.20
2018-08-24T14:39:45.326Z,41.00
2018-08-24T14:41:03.004Z,41.20
2018-08-24T14:42:19.820Z,41.00
2018-08-24T14:43:36.618Z,41.50
2018-08-24T14:44:53.118Z,41.10
2018-08-24T14:46:10.339Z,41.00
2018-08-24T14:47:27.873Z,41.00
2018-08-24T14:48:44.472Z,40.90
2018-08-24T14:50:01.805Z,41.50
2018-08-24T14:51:19.082Z,41.00
2018-08-24T14:52:36.120Z,41.10
2018-08-24T14:53:52.665Z,40.80
2018-08-24T14:55:09.720Z,40.80
2018-08-24T14:56:27.242Z,41.10
2018-08-24T14:57:44.056Z,41.40
2018-08-24T14:59:01.187Z,40.70
2018-08-24T15:00:18.801Z,40.70
2018-08-24T15:01:36.832Z,40.60
2018-08-24T15:02:53.492Z,40.60
2018-08-24T15:04:10.615Z,40.70
2018-08-24T15:05:27.309Z,40.70
2018-08-24T15:06:44.371Z,40.70
2018-08-24T15:08:01.124Z,40.80
2018-08-24T15:09:17.884Z,40.80
2018-08-24T15:10:34.677Z,40.80
2018-08-24T15:11:51.450Z,40.90
2018-08-24T15:13:07.958Z,40.90
2018-08-24T15:14:25.084Z,40.80
2018-08-24T15:15:43.126Z,40.90
2018-08-24T15:17:00.929Z,41.30
2018-08-24T15:18:17.413Z,41.30
2018-08-24T15:19:34.161Z,40.70
2018-08-24T15:20:51.262Z,40.50
2018-08-24T15:22:07.916Z,40.50
2018-08-24T15:23:24.875Z,40.50
2018-08-24T15:24:42.436Z,40.50
2018-08-24T15:25:59.317Z,40.60
2018-08-24T15:27:16.210Z,41.20
2018-08-24T15:28:33.185Z,40.50
2018-08-24T15:29:50.749Z,40.40
2018-08-24T15:31:08.326Z,40.60
2018-08-24T15:32:25.129Z,40.40
2018-08-24T15:33:42.088Z,40.60
2018-08-24T15:34:58.979Z,40.60
2018-08-24T15:36:16.626Z,40.80
2018-08-24T15:37:33.570Z,40.60
2018-08-24T15:38:51.319Z,40.60
2018-08-24T15:40:08.308Z,40.60
2018-08-24T15:41:24.923Z,41.10
2018-08-24T15:42:41.751Z,40.70
2018-08-24T15:43:58.358Z,41.20
2018-08-24T15:45:15.632Z,40.70
2018-08-24T15:46:33.287Z,40.60
2018-08-24T15:47:50.094Z,40.70
2018-08-24T15:49:09.204Z,40.70
2018-08-24T15:50:26.786Z,40.60
2018-08-24T15:51:44.260Z,40.60
2018-08-24T15:53:01.125Z,40.70
2018-08-24T15:54:17.941Z,40.70
2018-08-24T15:55:34.742Z,40.90
2018-08-24T15:56:51.674Z,41.50
2018-08-24T15:58:08.591Z,40.80
2018-08-24T15:59:26.200Z,41.50
2018-08-24T16:00:43.669Z,40.60
2018-08-24T16:02:01.770Z,40.60
2018-08-24T16:03:19.377Z,40.60
2018-08-24T16:04:37.405Z,40.60
2018-08-24T16:05:54.945Z,40.70
2018-08-24T16:07:11.866Z,40.70
2018-08-24T16:08:28.625Z,40.60
2018-08-24T16:09:46.569Z,40.60
2018-08-24T16:11:03.316Z,40.60
2018-08-24T16:12:20.939Z,41.40
2018-08-24T16:13:37.596Z,40.70
2018-08-24T16:14:54.420Z,40.80
2018-08-24T16:16:11.996Z,40.60
2018-08-24T16:17:28.661Z,41.40
2018-08-24T16:18:45.452Z,40.80
2018-08-24T16:20:02.244Z,40.70
2018-08-24T16:21:18.877Z,40.80
2018-08-24T16:22:35.697Z,40.80
2018-08-24T16:23:52.871Z,40.80
2018-08-24T16:25:09.505Z,40.80
2018-08-24T16:26:26.440Z,40.80
2018-08-24T16:27:43.186Z,41.50
2018-08-24T16:29:00.208Z,40.90
2018-08-24T16:30:16.881Z,40.90
2018-08-24T16:31:33.926Z,40.90
2018-08-24T16:32:51.472Z,41.40
2018-08-24T16:34:10.136Z,40.80
2018-08-24T16:35:26.887Z,41.00
2018-08-24T16:36:44.032Z,40.80